createdAt,value
2022-11-30T00:00:00.795Z,5.4
2022-11-30T00:03:01.037Z,5.4
2022-11-30T00:06:00.755Z,5.4
2022-11-30T00:09:00.767Z,5.4
2022-11-30T00:12:00.748Z,5.4
2022-11-30T00:15:00.719Z,5.4
2022-11-30T00:18:00.732Z,5.4
2022-11-30T00:21:00.714Z,5.4
2022-11-30T00:24:00.737Z,5.4
2022-11-30T00:27:00.740Z,5.4
2022-11-30T00:30:00.765Z,5.4
2022-11-30T00:33:00.765Z,5.4
2022-11-30T00:36:00.776Z,5.4
2022-11-30T00:39:00.806Z,5.4
2022-11-30T00:42:00.783Z,5.4
2022-11-30T00:45:00.739Z,5.4
2022-11-30T00:48:00.760Z,5.4
2022-11-30T00:51:00.728Z,5.4
2022-11-30T00:54:00.760Z,5.4
2022-11-30T00:57:00.744Z,5.4
2022-11-30T01:00:00.909Z,5.4
2022-11-30T01:03:00.722Z,5.4
2022-11-30T01:06:00.788Z,5.4
2022-11-30T01:09:00.720Z,5.4
2022-11-30T01:12:00.767Z,5.4
2022-11-30T01:15:00.865Z,5.4
2022-11-30T01:18:00.749Z,5.4
2022-11-30T01:21:00.830Z,5.4
2022-11-30T01:24:00.767Z,5.4
2022-11-30T01:27:00.735Z,5.4
2022-11-30T01:30:00.773Z,5.4
2022-11-30T01:33:00.785Z,5.4
2022-11-30T01:36:00.874Z,5.4
2022-11-30T01:39:00.798Z,5.4
2022-11-30T01:42:00.736Z,5.4
2022-11-30T01:45:00.784Z,5.4
2022-11-30T01:48:00.770Z,5.4
2022-11-30T01:51:00.729Z,5.4
2022-11-30T01:54:00.756Z,5.4
2022-11-30T01:57:00.733Z,5.4
2022-11-30T02:00:00.829Z,5.4
2022-11-30T02:03:00.772Z,5.4
2022-11-30T02:06:00.752Z,5.4
2022-11-30T02:09:00.754Z,5.4
2022-11-30T02:12:00.751Z,5.4
2022-11-30T02:15:00.769Z,5.4
2022-11-30T02:18:00.726Z,5.4
2022-11-30T02:21:00.748Z,5.4
2022-11-30T02:24:00.762Z,5.5
2022-11-30T02:27:00.693Z,5.5
2022-11-30T02:30:00.762Z,5.5
2022-11-30T02:33:00.727Z,5.5
2022-11-30T02:36:00.776Z,5.5
2022-11-30T02:39:00.740Z,5.5
2022-11-30T02:42:00.718Z,5.5
2022-11-30T02:45:00.741Z,5.5
2022-11-30T02:48:00.796Z,5.5
2022-11-30T02:51:00.731Z,5.5
2022-11-30T02:54:00.734Z,5.5
2022-11-30T02:57:00.704Z,5.5
2022-11-30T03:00:00.877Z,5.5
2022-11-30T03:03:00.858Z,5.5
2022-11-30T03:06:00.769Z,5.5
2022-11-30T03:09:00.734Z,5.5
2022-11-30T03:12:00.804Z,5.5
2022-11-30T03:15:00.787Z,5.5
2022-11-30T03:18:00.762Z,5.5
2022-11-30T03:21:00.723Z,5.5
2022-11-30T03:24:00.756Z,5.5
2022-11-30T03:27:00.768Z,5.4
2022-11-30T03:30:00.783Z,5.4
2022-11-30T03:33:00.736Z,5.4
2022-11-30T03:36:00.716Z,5.4
2022-11-30T03:39:00.778Z,5.4
2022-11-30T03:42:00.768Z,5.4
2022-11-30T03:45:00.746Z,5.4
2022-11-30T03:48:00.764Z,5.4
2022-11-30T03:51:00.736Z,5.4
2022-11-30T03:54:00.749Z,5.4
2022-11-30T03:57:00.785Z,5.4
2022-11-30T04:00:00.799Z,5.4
2022-11-30T04:03:00.868Z,5.4
2022-11-30T04:06:00.742Z,5.4
2022-11-30T04:09:00.749Z,5.4
2022-11-30T04:12:00.735Z,5.4
2022-11-30T04:15:00.744Z,5.4
2022-11-30T04:18:00.724Z,5.4
2022-11-30T04:21:00.758Z,5.4
2022-11-30T04:24:00.745Z,5.4
2022-11-30T04:27:00.780Z,5.4
2022-11-30T04:30:00.795Z,5.4
2022-11-30T04:33:00.740Z,5.4
2022-11-30T04:36:00.760Z,5.4
2022-11-30T04:39:00.734Z,5.4
2022-11-30T04:42:00.770Z,5.4
2022-11-30T04:45:00.761Z,5.4
2022-11-30T04:48:00.742Z,5.4
2022-11-30T04:51:00.744Z,5.4
2022-11-30T04:54:00.734Z,5.4
2022-11-30T04:57:00.706Z,5.4
2022-11-30T05:00:00.835Z,5.4
2022-11-30T05:03:00.738Z,5.4
2022-11-30T05:06:00.827Z,5.4
2022-11-30T05:09:00.722Z,5.4
2022-11-30T05:12:00.738Z,5.4
2022-11-30T05:15:00.744Z,5.5
2022-11-30T05:18:00.753Z,5.5
2022-11-30T05:21:00.824Z,5.5
2022-11-30T05:24:00.751Z,5.5
2022-11-30T05:27:00.732Z,5.5
2022-11-30T05:30:00.761Z,5.5
2022-11-30T05:33:00.777Z,5.5
2022-11-30T05:36:10.306Z,5.5
2022-11-30T05:39:00.764Z,5.5
2022-11-30T05:42:00.780Z,5.5
2022-11-30T05:45:00.775Z,5.5
2022-11-30T05:48:00.751Z,5.5
2022-11-30T05:51:00.731Z,5.5
2022-11-30T05:54:00.765Z,5.5
2022-11-30T05:57:00.737Z,5.5
2022-11-30T06:00:00.795Z,5.5
2022-11-30T06:03:01.143Z,5.5
2022-11-30T06:06:00.740Z,5.5
2022-11-30T06:09:00.746Z,5.5
2022-11-30T06:12:00.720Z,5.5
2022-11-30T06:15:00.748Z,5.5
2022-11-30T06:18:00.792Z,5.5
2022-11-30T06:21:00.759Z,5.5
2022-11-30T06:24:00.785Z,5.5
2022-11-30T06:27:00.764Z,5.5
2022-11-30T06:30:00.797Z,5.5
2022-11-30T06:33:00.749Z,5.5
2022-11-30T06:36:00.767Z,5.5
2022-11-30T06:39:00.761Z,5.5
2022-11-30T06:42:00.757Z,5.5
2022-11-30T06:45:00.773Z,5.5
2022-11-30T06:48:00.806Z,5.5
2022-11-30T06:51:00.775Z,5.5
2022-11-30T06:54:00.808Z,5.5
2022-11-30T06:57:00.722Z,5.5
2022-11-30T07:00:00.809Z,5.5
2022-11-30T07:03:00.722Z,5.5
2022-11-30T07:06:00.903Z,5.5
2022-11-30T07:09:00.739Z,5.5
2022-11-30T07:12:00.788Z,5.6
2022-11-30T07:15:00.764Z,5.6
2022-11-30T07:18:00.816Z,5.6
2022-11-30T07:21:00.761Z,5.6
2022-11-30T07:24:00.780Z,5.6
2022-11-30T07:27:00.824Z,5.6
2022-11-30T07:30:00.832Z,5.6
2022-11-30T07:33:00.774Z,5.6
2022-11-30T07:36:00.796Z,5.6
2022-11-30T07:39:00.757Z,5.6
2022-11-30T07:42:00.862Z,5.6
2022-11-30T07:45:01.080Z,5.6
2022-11-30T07:48:00.794Z,5.6
2022-11-30T07:51:00.769Z,5.6
2022-11-30T07:54:00.862Z,5.6
2022-11-30T07:57:00.801Z,5.6
2022-11-30T08:00:00.963Z,5.6
2022-11-30T08:03:00.809Z,5.6
2022-11-30T08:06:01.023Z,5.6
2022-11-30T08:09:00.757Z,5.6
2022-11-30T08:12:00.805Z,5.6
2022-11-30T08:15:21.742Z,5.6
2022-11-30T08:18:00.823Z,5.6
2022-11-30T08:21:00.893Z,5.6
2022-11-30T08:24:00.932Z,5.6
2022-11-30T08:27:00.799Z,5.6
2022-11-30T08:30:00.764Z,5.6
2022-11-30T08:33:00.807Z,5.6
2022-11-30T08:36:01.461Z,5.6
2022-11-30T08:39:00.803Z,5.6
2022-11-30T08:42:00.902Z,5.6
2022-11-30T08:45:01.444Z,5.6
2022-11-30T08:48:00.827Z,5.6
2022-11-30T08:51:00.815Z,5.6
2022-11-30T08:54:00.884Z,5.6
2022-11-30T08:57:00.830Z,5.6
2022-11-30T09:00:00.947Z,5.6
2022-11-30T09:03:01.106Z,5.6
2022-11-30T09:06:00.843Z,5.6
2022-11-30T09:09:00.816Z,5.7
2022-11-30T09:12:00.863Z,5.7
2022-11-30T09:15:01.240Z,5.7
2022-11-30T09:18:00.923Z,5.7
2022-11-30T09:21:00.865Z,5.7
2022-11-30T09:24:00.938Z,5.7
2022-11-30T09:27:00.851Z,5.7
2022-11-30T09:30:00.913Z,5.7
2022-11-30T09:33:00.821Z,5.7
2022-11-30T09:36:00.847Z,5.7
2022-11-30T09:39:00.872Z,5.7
2022-11-30T09:42:00.794Z,5.7
2022-11-30T09:45:00.815Z,5.7
2022-11-30T09:48:00.810Z,5.7
2022-11-30T09:51:00.790Z,5.7
2022-11-30T09:54:00.837Z,5.7
2022-11-30T09:57:00.769Z,5.7
2022-11-30T10:00:00.853Z,5.7
2022-11-30T10:03:00.980Z,5.8
2022-11-30T10:06:00.804Z,5.8
2022-11-30T10:09:00.787Z,5.8
2022-11-30T10:12:00.889Z,5.8
2022-11-30T10:15:01.001Z,5.8
2022-11-30T10:18:00.836Z,5.8
2022-11-30T10:21:00.783Z,5.8
2022-11-30T10:24:00.866Z,5.8
2022-11-30T10:27:00.806Z,5.8
2022-11-30T10:30:00.813Z,5.8
2022-11-30T10:33:00.888Z,5.8
2022-11-30T10:36:00.827Z,5.8
2022-11-30T10:39:00.825Z,5.8
2022-11-30T10:42:00.848Z,5.8
2022-11-30T10:45:00.834Z,5.8
2022-11-30T10:48:00.817Z,5.8
2022-11-30T10:51:00.786Z,5.8
2022-11-30T10:54:00.805Z,5.8
2022-11-30T10:57:00.785Z,5.8
2022-11-30T11:00:00.916Z,5.9
2022-11-30T11:06:00.826Z,5.9
2022-11-30T11:09:00.848Z,5.9
2022-11-30T11:12:00.815Z,5.9
2022-11-30T11:15:01.027Z,5.9
2022-11-30T11:18:00.873Z,5.9
2022-11-30T11:21:06.646Z,5.9
2022-11-30T11:24:00.963Z,5.9
2022-11-30T11:27:00.794Z,5.9
2022-11-30T11:30:00.820Z,5.9
2022-11-30T11:33:00.891Z,6
2022-11-30T11:36:00.827Z,6
2022-11-30T11:39:00.738Z,6
2022-11-30T11:42:00.821Z,6
2022-11-30T11:45:00.778Z,6
2022-11-30T11:48:00.847Z,6
2022-11-30T11:51:08.719Z,5.9
2022-11-30T11:54:00.928Z,5.9
2022-11-30T11:57:00.748Z,5.9
2022-11-30T12:00:00.890Z,5.9
2022-11-30T12:03:00.834Z,5.9
2022-11-30T12:06:00.950Z,5.9
2022-11-30T12:09:00.846Z,5.9
2022-11-30T12:12:00.852Z,5.9
2022-11-30T12:15:00.767Z,5.9
2022-11-30T12:18:00.793Z,5.9
2022-11-30T12:21:00.753Z,5.9
2022-11-30T12:24:00.785Z,5.9
2022-11-30T12:27:00.817Z,5.9
2022-11-30T12:30:00.869Z,5.9
2022-11-30T12:33:00.775Z,5.9
2022-11-30T12:36:00.819Z,5.9
2022-11-30T12:39:00.810Z,5.9
2022-11-30T12:42:00.891Z,5.9
2022-11-30T12:45:00.856Z,5.9
2022-11-30T12:48:00.774Z,5.9
2022-11-30T12:51:00.785Z,5.9
2022-11-30T12:54:00.801Z,6
2022-11-30T12:57:00.818Z,6
2022-11-30T13:00:00.877Z,6
2022-11-30T13:03:00.783Z,6
2022-11-30T13:06:00.830Z,6
2022-11-30T13:09:00.909Z,6
2022-11-30T13:12:00.833Z,6
2022-11-30T13:15:00.814Z,6
2022-11-30T13:18:00.823Z,6
2022-11-30T13:21:07.111Z,6
2022-11-30T13:24:00.825Z,6
2022-11-30T13:27:00.799Z,6
2022-11-30T13:30:01.070Z,6
2022-11-30T13:33:00.768Z,6
2022-11-30T13:36:00.786Z,6
2022-11-30T13:39:00.811Z,6
2022-11-30T13:42:00.781Z,6
2022-11-30T13:45:00.775Z,6
2022-11-30T13:48:00.845Z,6
2022-11-30T13:51:00.781Z,6
2022-11-30T13:54:28.103Z,6
2022-11-30T13:57:00.769Z,6
2022-11-30T14:00:01.445Z,6
2022-11-30T14:03:00.771Z,6
2022-11-30T14:06:00.801Z,6
2022-11-30T14:09:00.773Z,6
2022-11-30T14:12:00.824Z,6
2022-11-30T14:15:00.770Z,6
2022-11-30T14:18:00.840Z,6
2022-11-30T14:21:00.781Z,6
2022-11-30T14:24:00.782Z,6
2022-11-30T14:27:00.872Z,6
2022-11-30T14:30:00.796Z,6
2022-11-30T14:33:00.812Z,6
2022-11-30T14:36:00.955Z,6
2022-11-30T14:39:00.758Z,6
2022-11-30T14:42:00.859Z,6
2022-11-30T14:45:00.854Z,6
2022-11-30T14:48:00.878Z,6
2022-11-30T14:51:00.764Z,6
2022-11-30T14:54:00.831Z,5.9
2022-11-30T14:57:00.779Z,5.9
2022-11-30T15:00:00.861Z,5.9
2022-11-30T15:03:00.740Z,5.9
2022-11-30T15:06:00.858Z,5.9
2022-11-30T15:09:00.787Z,5.9
2022-11-30T15:12:00.821Z,5.9
2022-11-30T15:15:00.748Z,5.9
2022-11-30T15:18:00.722Z,5.9
2022-11-30T15:21:00.823Z,5.9
2022-11-30T15:24:00.884Z,5.9
2022-11-30T15:27:10.188Z,6
2022-11-30T15:30:00.945Z,6
2022-11-30T15:33:00.836Z,6
2022-11-30T15:36:33.259Z,6
2022-11-30T15:39:00.762Z,6
2022-11-30T15:42:00.697Z,6
2022-11-30T15:45:00.734Z,6
2022-11-30T15:48:00.787Z,6
2022-11-30T15:51:00.753Z,5.8
2022-11-30T15:54:00.829Z,5.8
2022-11-30T15:57:08.991Z,5.8
2022-11-30T16:00:00.768Z,5.8
2022-11-30T16:03:00.962Z,5.8
2022-11-30T16:06:00.802Z,5.8
2022-11-30T16:09:00.807Z,5.8
2022-11-30T16:12:00.851Z,5.8
2022-11-30T16:15:00.784Z,5.8
2022-11-30T16:18:00.769Z,5.8
2022-11-30T16:21:00.871Z,5.7
2022-11-30T16:24:00.749Z,5.7
2022-11-30T16:27:00.821Z,5.7
2022-11-30T16:30:00.961Z,5.7
2022-11-30T16:33:00.763Z,5.7
2022-11-30T16:36:00.783Z,5.7
2022-11-30T16:39:00.788Z,5.7
2022-11-30T16:42:00.747Z,5.7
2022-11-30T16:45:00.895Z,5.5
2022-11-30T16:48:00.807Z,5.5
2022-11-30T16:51:00.772Z,5.5
2022-11-30T16:54:00.810Z,5.5
2022-11-30T16:57:00.740Z,5.5
2022-11-30T17:00:00.809Z,5.5
2022-11-30T17:03:00.783Z,5.5
2022-11-30T17:06:00.849Z,5.5
2022-11-30T17:09:00.765Z,5.5
2022-11-30T17:12:00.869Z,5.5
2022-11-30T17:15:01.465Z,5.5
2022-11-30T17:18:00.805Z,5.5
2022-11-30T17:21:00.811Z,5.5
2022-11-30T17:24:00.761Z,5.5
2022-11-30T17:27:00.751Z,5.5
2022-11-30T17:30:00.744Z,5.5
2022-11-30T17:33:00.835Z,5.5
2022-11-30T17:36:00.760Z,5.2
2022-11-30T17:39:00.888Z,5.2
2022-11-30T17:42:00.829Z,5.2
2022-11-30T17:45:00.741Z,5.2
2022-11-30T17:48:00.825Z,5.2
2022-11-30T17:51:00.873Z,5.2
2022-11-30T17:54:00.853Z,5.2
2022-11-30T17:57:00.748Z,5.2
2022-11-30T18:00:00.833Z,5.2
2022-11-30T18:03:00.851Z,5.2
2022-11-30T18:06:00.756Z,5.2
2022-11-30T18:09:00.733Z,5.2
2022-11-30T18:12:00.789Z,5.2
2022-11-30T18:15:00.741Z,5.2
2022-11-30T18:18:00.822Z,5.2
2022-11-30T18:21:00.753Z,5.1
2022-11-30T18:24:00.778Z,5.1
2022-11-30T18:27:00.862Z,5.1
2022-11-30T18:30:02.027Z,5
2022-11-30T18:33:00.758Z,5
2022-11-30T18:36:01.000Z,5
2022-11-30T18:39:00.773Z,5
2022-11-30T18:42:00.791Z,5
2022-11-30T18:45:00.748Z,5
2022-11-30T18:48:00.807Z,5
2022-11-30T18:51:00.740Z,5
2022-11-30T18:54:00.830Z,5
2022-11-30T18:57:00.863Z,4.8
2022-11-30T19:00:00.721Z,4.8
2022-11-30T19:03:00.922Z,4.8
2022-11-30T19:06:00.731Z,4.8
2022-11-30T19:09:00.744Z,4.8
2022-11-30T19:12:00.897Z,4.8
2022-11-30T19:15:00.832Z,4.8
2022-11-30T19:18:00.714Z,4.8
2022-11-30T19:21:00.781Z,4.8
2022-11-30T19:24:00.752Z,4.8
2022-11-30T19:27:00.800Z,4.8
2022-11-30T19:30:00.777Z,4.8
2022-11-30T19:33:00.766Z,4.8
2022-11-30T19:36:00.835Z,4.8
2022-11-30T19:39:00.822Z,4.8
2022-11-30T19:42:00.764Z,4.8
2022-11-30T19:45:00.793Z,4.8
2022-11-30T19:48:00.744Z,4.8
2022-11-30T19:51:00.778Z,4.8
2022-11-30T19:54:00.737Z,4.8
2022-11-30T19:57:00.859Z,4.8
2022-11-30T20:00:00.772Z,4.8
2022-11-30T20:03:00.995Z,4.8
2022-11-30T20:06:00.838Z,4.8
2022-11-30T20:09:00.791Z,4.8
2022-11-30T20:12:00.756Z,4.8
2022-11-30T20:15:00.805Z,4.8
2022-11-30T20:18:00.735Z,4.8
2022-11-30T20:21:00.789Z,4.7
2022-11-30T20:24:00.807Z,4.7
2022-11-30T20:27:00.812Z,4.7
2022-11-30T20:30:00.887Z,4.7
2022-11-30T20:33:00.748Z,4.7
2022-11-30T20:36:01.000Z,4.7
2022-11-30T20:39:00.790Z,4.7
2022-11-30T20:42:00.777Z,4.7
2022-11-30T20:45:00.881Z,4.7
2022-11-30T20:48:00.782Z,4.7
2022-11-30T20:51:31.049Z,4.7
2022-11-30T20:54:00.793Z,4.7
2022-11-30T20:57:00.987Z,4.7
2022-11-30T21:00:00.819Z,4.7
2022-11-30T21:03:01.012Z,4.7
2022-11-30T21:06:00.789Z,4.7
2022-11-30T21:09:00.845Z,4.7
2022-11-30T21:12:00.744Z,4.7
2022-11-30T21:15:00.790Z,4.7
2022-11-30T21:18:00.742Z,4.7
2022-11-30T21:21:00.778Z,4.7
2022-11-30T21:24:00.776Z,4.7
2022-11-30T21:27:00.757Z,4.7
2022-11-30T21:30:00.889Z,4.7
2022-11-30T21:33:00.739Z,4.7
2022-11-30T21:36:00.732Z,4.7
2022-11-30T21:39:06.529Z,4.7
2022-11-30T21:42:00.805Z,4.7
2022-11-30T21:45:01.156Z,4.7
2022-11-30T21:48:00.716Z,4.7
2022-11-30T21:51:00.746Z,4.7
2022-11-30T21:54:00.740Z,4.7
2022-11-30T21:57:00.750Z,4.7
2022-11-30T22:00:00.800Z,4.7
2022-11-30T22:03:00.908Z,4.7
2022-11-30T22:06:00.750Z,4.7
2022-11-30T22:09:00.759Z,4.7
2022-11-30T22:12:00.742Z,4.4
2022-11-30T22:15:00.815Z,4.4
2022-11-30T22:18:00.774Z,4.4
2022-11-30T22:21:00.780Z,4.4
2022-11-30T22:24:00.732Z,4.4
2022-11-30T22:27:00.761Z,4.4
2022-11-30T22:30:00.779Z,4.4
2022-11-30T22:33:00.879Z,4.4
2022-11-30T22:36:00.781Z,4.4
2022-11-30T22:39:00.844Z,4.4
2022-11-30T22:42:00.824Z,4.2
2022-11-30T22:45:00.746Z,4.2
2022-11-30T22:48:00.784Z,4.2
2022-11-30T22:51:00.732Z,4.2
2022-11-30T22:54:00.752Z,4.2
2022-11-30T22:57:00.747Z,4.2
2022-11-30T23:00:01.255Z,4.2
2022-11-30T23:03:00.753Z,4.2
2022-11-30T23:06:00.767Z,4
2022-11-30T23:09:00.889Z,4
2022-11-30T23:12:00.806Z,4
2022-11-30T23:15:00.763Z,4
2022-11-30T23:18:00.872Z,4
2022-11-30T23:21:00.805Z,4
2022-11-30T23:24:00.775Z,4
2022-11-30T23:27:00.742Z,4
2022-11-30T23:30:00.822Z,4
2022-11-30T23:33:00.748Z,4
2022-11-30T23:36:00.796Z,4
2022-11-30T23:39:00.726Z,3.7
2022-11-30T23:42:00.793Z,3.7
2022-11-30T23:45:00.802Z,3.7
2022-11-30T23:48:00.820Z,3.7
2022-11-30T23:51:00.717Z,3.7
2022-11-30T23:54:00.848Z,3.7
2022-11-30T23:57:00.752Z,3.7
